Terminal Aerodrome Forecast
Issued by NWS Cleveland, OH

Home | Current Version | Previous Version | Text Only | Print | Product List | Glossary On
Versions: 1 2 3 4 5 6 7 8 9 10 11 12 13 14 15 16 17 18
946
FTUS41 KCLE 241735
TAFMFD
TAF
KMFD 241735Z 2418/2518 22018G30KT P6SM SCT070 BKN140
     FM250000 21010G20KT P6SM SCT070
     FM250400 20006KT P6SM BKN060
     FM251100 18006KT P6SM BKN050=

USA.gov is the U.S. government's official web portal to all federal, state and local government web resources and services.